ADDS METAR Data INFO
IDs: Format: Raw Decoded Include TAF

Data at: 0801 UTC 23 Jul 2018

KGAF 230755Z AUTO 28008KT 10SM CLR 18/18 A3003 RMK AO2 PWINO
KGAF 230735Z AUTO 28006KT 10SM CLR 18/18 A3003 RMK AO2 PWINO
KGAF 230715Z AUTO 26005KT 6SM BR CLR 18/18 A3003 RMK AO2 PWINO
KGAF 230655Z AUTO 25006KT 4SM BR CLR 19/19 A3004 RMK AO2 PWINO
KGAF 230635Z AUTO 24005KT 4SM BR SCT003 19/19 A3004 RMK AO2 PWINO
KGAF 230615Z AUTO 25008KT 7SM OVC003 20/20 A3004 RMK AO2 PWINO
KGAF 230555Z AUTO 25006KT 2SM BR OVC001 20/20 A3005 RMK AO2 PWINO
KGAF 230535Z AUTO 25013G19KT 1/4SM FG OVC001 20/20 A3005 RMK AO2 PWINO
KGAF 230515Z AUTO 23006KT 4SM BR BKN002 19/19 A3004 RMK AO2 PWINO
KGAF 230455Z AUTO 22005KT 7SM CLR 19/19 A3004 RMK AO2 PWINO
KGAF 230435Z AUTO 21006KT 8SM CLR 19/19 A3004 RMK AO2 PWINO
KGAF 230415Z AUTO 22007KT 10SM CLR 19/19 A3004 RMK AO2 PWINO
KGAF 230355Z AUTO 21008KT 10SM CLR 19/19 A3003 RMK AO2 PWINO
KGAF 230335Z AUTO 20008KT 10SM SCT065 20/20 A3002 RMK AO2 PWINO
KGAF 230315Z AUTO 19008KT 10SM FEW060 20/20 A3002 RMK AO2 PWINO
KGAF 230255Z AUTO 19008G13KT 10SM FEW060 20/20 A3002 RMK AO2 PWINO
KGAF 230235Z AUTO 20011KT 10SM BKN060 20/20 A3002 RMK AO2 PWINO
KGAF 230215Z AUTO 20010G16KT 10SM FEW043 SCT049 OVC055 21/21 A3001 RMK AO2 PWINO
KGAF 230155Z AUTO 19007KT 10SM BKN045 BKN055 BKN065 21/21 A3001 RMK AO2 LTG DSNT SE AND S PWINO
KGAF 230135Z AUTO 20008KT 10SM FEW049 SCT060 21/21 A3001 RMK AO2 PWINO
KGAF 230115Z AUTO 20008KT 10SM FEW007 21/21 A3002 RMK AO2 PWINO
KGAF 230055Z AUTO 20007KT 10SM CLR 21/21 A3001 RMK AO2 PWINO
KGAF 230035Z AUTO 22008KT 10SM FEW036 FEW045 21/21 A3002 RMK AO2 PWINO
KGAF 230015Z AUTO 21007KT 4SM BR FEW002 SCT022 BKN041 21/21 A3001 RMK AO2 LTG DSNT SE AND S PWINO
KGAF 222355Z AUTO 18007KT 2SM BR FEW002 BKN031 OVC060 21/21 A3001 RMK AO2 LTG DSNT SE-SW PWINO
KGAF 222335Z AUTO 20007KT 7SM SCT027 BKN044 BKN060 21/21 A3001 RMK AO2 PWINO
KGAF 222315Z AUTO 11011KT 2 1/2SM VCTS BR SCT002 BKN021 OVC044 21/21 A2999 RMK AO2 LTG DSNT SW PWINO
KGAF 222255Z AUTO 32009KT 1 1/4SM TS SCT001 BKN034 OVC047 22/21 A3005 RMK AO2 PWINO
KGAF 222235Z AUTO 34006KT 9SM VCTS BKN049 BKN060 24/20 A3002 RMK AO2 LTG DSNT NE PWINO
KGAF 222215Z AUTO 00000KT 10SM FEW050 SCT085 25/18 A3001 RMK AO2 LTG DSNT SW AND NW PWINO
KGAF 222155Z AUTO 17005KT 10SM VCTS SCT085 26/18 A3000 RMK AO2 LTG DSNT W-N PWINO
KGAF 222135Z AUTO 16006G13KT 10SM FEW080 26/17 A2999 RMK AO2 LTG DSNT N AND W PWINO
KGAF 222115Z AUTO 17015KT 10SM BKN080 27/17 A2999 RMK AO2 LTG DSNT W AND NW PWINO
KGAF 222055Z AUTO 18011G17KT 10SM FEW048 SCT085 27/17 A2999 RMK AO2 PWINO
KGAF 222035Z AUTO 13/29166713G20KT 10SM SCT047 27/17 A3000 RMK AO2 PWINO
KGAF 222015Z AUTO 18015G22KT 10SM SCT047 28/17 A3000 RMK AO2 PWINO
KGAF 221955Z AUTO 18016KT 10SM SCT047 29/17 A3000 RMK AO2 PWINO
KGAF 221935Z AUTO 17013KT 10SM BKN045 28/18 A3001 RMK AO2 PWINO
KGAF 221915Z AUTO 17010G18KT 10SM SCT046 SCT120 28/18 A3002 RMK AO2 PWINO
KGAF 221855Z AUTO 18016KT 10SM SCT044 SCT120 28/18 A3002 RMK AO2 PWINO
KGAF 221835Z AUTO 16015G20KT 10SM SCT041 SCT047 28/18 A3002 RMK AO2 PWINO
KGAF 221815Z AUTO 17012G19KT 10SM FEW037 FEW047 28/18 A3003 RMK AO2 PWINO
KGAF 221755Z AUTO 17012KT 10SM FEW036 FEW048 28/18 A3004 RMK AO2 PWINO
KGAF 221735Z AUTO 18012KT 10SM FEW034 FEW043 SCT049 27/18 A3005 RMK AO2 PWINO
KGAF 221715Z AUTO 18012KT 10SM FEW031 FEW039 SCT055 26/19 A3006 RMK AO2 PWINO
KGAF 221655Z AUTO 17012G17KT 10SM FEW027 FEW034 SCT048 26/19 A3004 RMK AO2 PWINO
KGAF 221635Z AUTO 16012G18KT 10SM SCT026 SCT033 SCT043 26/19 A3003 RMK AO2 PWINO
KGAF 221615Z AUTO 15011G17KT 10SM FEW024 25/20 A3003 RMK AO2 PWINO
KGAF 221555Z AUTO 15009G16KT 10SM CLR 25/20 A3004 RMK AO2 PWINO
KGAF 221535Z AUTO 14012KT 10SM CLR 25/20 A3003 RMK AO2 PWINO
KGAF 221515Z AUTO 15012KT 10SM CLR 24/19 A3004 RMK AO2 PWINO
KGAF 221455Z AUTO 16012KT 10SM CLR 23/19 A3005 RMK AO2 PWINO
KGAF 221435Z AUTO 16010KT 10SM CLR 22/19 A3005 RMK AO2 PWINO
KGAF 221415Z AUTO 14010KT 10SM CLR 23/19 A3005 RMK AO2 PWINO
KGAF 221355Z AUTO 15010KT 10SM CLR 21/20 A3006 RMK AO2 PWINO
KGAF 221335Z AUTO 15011KT 10SM CLR 20/20 A3006 RMK AO2 PWINO
KGAF 221315Z AUTO 12011KT 10SM CLR 19/19 A3006 RMK AO2 PWINO
KGAF 221255Z AUTO 14007KT 9SM FEW045 18/18 A3008 RMK AO2 PWINO
KGAF 221235Z AUTO 13006KT 7SM BKN044 17/17 A3009 RMK AO2 PWINO
KGAF 221215Z AUTO 12004KT 7SM SCT042 16/16 A3009 RMK AO2 PWINO
KGAF 221155Z AUTO 00000KT 6SM BR FEW034 15/15 A3009 RMK AO2 PWINO
KGAF 221135Z AUTO 00000KT 4SM BR SCT038 15/15 A3009 RMK AO2 PWINO
KGAF 221115Z AUTO 00000KT 4SM BR SCT039 16/16 A3009 RMK AO2 PWINO
KGAF 221055Z AUTO 11004KT 7SM BKN040 16/16 A3009 RMK AO2 PWINO
KGAF 221035Z AUTO 00000KT 10SM OVC040 16/16 A3009 RMK AO2 PWINO
KGAF 221015Z AUTO 00000KT 9SM OVC042 16/16 A3009 RMK AO2 PWINO
KGAF 220955Z AUTO 00000KT 10SM OVC042 15/15 A3009 RMK AO2 PWINO
KGAF 220935Z AUTO 14004KT 8SM BKN042 15/15 A3009 RMK AO2 PWINO
KGAF 220915Z AUTO 13004KT 9SM SCT043 15/15 A3009 RMK AO2 PWINO
KGAF 220855Z AUTO 00000KT 5SM BR FEW042 15/15 A3009 RMK AO2 PWINO
KGAF 220835Z AUTO 11004KT 7SM CLR 16/16 A3009 RMK AO2 PWINO
KGAF 220815Z AUTO 10005KT 10SM CLR 16/16 A3008 RMK AO2 PWINO
KGAF 220755Z AUTO 12006KT 10SM CLR 16/16 A3008 RMK AO2 PWINO
KGAF 220735Z AUTO 13005KT 10SM CLR 16/16 A3009 RMK AO2 PWINO
KGAF 220715Z AUTO 13007KT 10SM CLR 17/17 A3010 RMK AO2 PWINO
KGAF 220655Z AUTO 12006KT 10SM CLR 17/17 A3010 RMK AO2 PWINO
KGAF 220635Z AUTO 14005KT 10SM CLR 17/17 A3011 RMK AO2 PWINO
KGAF 220615Z AUTO 11007KT 10SM CLR 17/17 A3011 RMK AO2 PWINO
KGAF 220555Z AUTO 11008KT 10SM CLR 18/18 A3010 RMK AO2 PWINO
KGAF 220535Z AUTO 11007KT 10SM CLR 18/18 A3011 RMK AO2 PWINO
KGAF 220515Z AUTO 12007KT 10SM CLR 17/17 A3012 RMK AO2 PWINO
KGAF 220455Z AUTO 10004KT 10SM CLR 17/17 A3014 RMK AO2 PWINO
KGAF 220435Z AUTO 11005KT 10SM CLR 17/17 A3013 RMK AO2 PWINO
KGAF 220415Z AUTO 11005KT 10SM CLR 18/18 A3013 RMK AO2 PWINO
KGAF 220355Z AUTO 09005KT 10SM CLR 17/17 A3013 RMK AO2 PWINO
KGAF 220335Z AUTO 09006KT 10SM CLR 18/18 A3013 RMK AO2 PWINO
KGAF 220315Z AUTO 08003KT 10SM CLR 18/18 A3013 RMK AO2 PWINO
KGAF 220255Z AUTO 08005KT 10SM CLR 19/19 A3013 RMK AO2 PWINO
KGAF 220235Z AUTO 08006KT 10SM CLR 19/19 A3013 RMK AO2 PWINO
KGAF 220215Z AUTO 07004KT 10SM CLR 20/19 A3013 RMK AO2 PWINO
KGAF 220155Z AUTO 07004KT 10SM CLR 21/19 A3013 RMK AO2 PWINO
KGAF 220135Z AUTO 09005KT 10SM CLR 21/19 A3012 RMK AO2 PWINO
KGAF 220115Z AUTO 09007KT 10SM CLR 22/18 A3011 RMK AO2 PWINO
KGAF 220055Z AUTO 09007KT 10SM FEW036 23/19 A3010 RMK AO2 PWINO
KGAF 220035Z AUTO 10007KT 10SM FEW035 FEW055 23/18 A3010 RMK AO2 PWINO
KGAF 220015Z AUTO 10007KT 10SM FEW036 FEW055 24/17 A3010 RMK AO2 PWINO
KGAF 212355Z AUTO 11006KT 10SM FEW036 BKN050 24/17 A3010 RMK AO2 PWINO
KGAF 212335Z AUTO 12009KT 10SM FEW040 SCT050 25/17 A3009 RMK AO2 PWINO
KGAF 212315Z AUTO 10012KT 10SM FEW040 FEW055 25/17 A3009 RMK AO2 PWINO
KGAF 212255Z AUTO 12006KT 10SM FEW041 SCT050 24/17 A3010 RMK AO2 PWINO
KGAF 212235Z AUTO 10011KT 10SM SCT041 SCT055 26/16 A3011 RMK AO2 PWINO
KGAF 212215Z AUTO 13008KT 10SM CLR 26/16 A3011 RMK AO2 PWINO
KGAF 212155Z AUTO 10008KT 10SM CLR 25/16 A3010 RMK AO2 PWINO
KGAF 212135Z AUTO 09008KT 10SM FEW042 FEW048 26/15 A3010 RMK AO2 PWINO
KGAF 212115Z AUTO 10007KT 10SM FEW042 FEW055 25/15 A3010 RMK AO2 PWINO
KGAF 212055Z AUTO 09007KT 10SM FEW042 26/16 A3011 RMK AO2 PWINO
KGAF 212035Z AUTO 08009KT 10SM FEW038 26/16 A3011 RMK AO2 PWINO
KGAF 212015Z AUTO 06010G15KT 10SM FEW038 26/16 A3011 RMK AO2 PWINO